createdAt,value
2018-07-07T06:26:12.291Z,53.216553
2018-07-07T06:26:29.369Z,53.216553
2018-07-07T06:26:46.969Z,53.216553
2018-07-07T06:27:04.201Z,53.320312
2018-07-07T06:27:21.321Z,53.320312
2018-07-07T06:27:38.500Z,53.320312
2018-07-07T06:27:55.445Z,53.320312
2018-07-07T06:28:32.936Z,53.295898
2018-07-07T06:28:49.551Z,53.295898
2018-07-07T06:29:06.806Z,53.295898
2018-07-07T06:29:24.467Z,53.295898
2018-07-07T06:29:42.044Z,53.295898
2018-07-07T06:29:59.357Z,53.295898
2018-07-07T06:30:16.690Z,53.192139
2018-07-07T06:30:34.116Z,53.167725
2018-07-07T06:30:51.108Z,53.167725
2018-07-07T06:31:08.301Z,53.167725
2018-07-07T06:31:25.311Z,53.070068
2018-07-07T06:32:03.939Z,53.070068
2018-07-07T06:32:20.635Z,53.070068
2018-07-07T06:32:37.242Z,53.070068
2018-07-07T06:32:53.916Z,53.070068
2018-07-07T06:33:10.647Z,53.167725
2018-07-07T06:33:27.370Z,53.167725
2018-07-07T06:33:44.116Z,53.167725
2018-07-07T06:34:01.169Z,53.167725
2018-07-07T06:34:18.312Z,53.167725
2018-07-07T06:34:35.194Z,53.265381
2018-07-07T06:34:51.874Z,53.265381
2018-07-07T06:35:08.829Z,53.265381
2018-07-07T06:35:26.005Z,53.265381
2018-07-07T06:36:01.512Z,53.265381
2018-07-07T06:36:18.723Z,53.369141
2018-07-07T06:37:06.032Z,53.369141
2018-07-07T06:37:43.218Z,53.570557
2018-07-07T06:37:59.837Z,53.570557
2018-07-07T06:38:16.491Z,53.668213
2018-07-07T06:39:01.628Z,53.668213
2018-07-07T06:39:18.944Z,53.668213
2018-07-07T06:39:36.242Z,53.668213
2018-07-07T06:39:53.458Z,53.668213
2018-07-07T06:40:11.006Z,53.668213
2018-07-07T06:40:28.311Z,53.668213
2018-07-07T06:40:46.318Z,53.668213
2018-07-07T06:41:03.314Z,53.668213
2018-07-07T06:41:20.074Z,53.668213
2018-07-07T06:41:37.145Z,53.668213
2018-07-07T06:41:54.185Z,53.570557
2018-07-07T06:42:11.410Z,53.570557
2018-07-07T06:42:28.921Z,53.570557
2018-07-07T06:42:45.636Z,53.570557
2018-07-07T06:43:38.333Z,53.442383
2018-07-07T06:44:17.043Z,53.442383
2018-07-07T06:45:01.673Z,53.442383
2018-07-07T06:45:19.142Z,53.442383
2018-07-07T06:45:36.410Z,53.442383
2018-07-07T06:45:53.734Z,53.344727
2018-07-07T06:46:33.392Z,53.344727
2018-07-07T06:46:50.124Z,53.344727
2018-07-07T06:47:06.906Z,53.240967
2018-07-07T06:47:23.650Z,53.240967
2018-07-07T06:47:40.585Z,53.143311
2018-07-07T06:47:57.359Z,53.118896
2018-07-07T06:48:37.656Z,53.015137
2018-07-07T06:49:15.906Z,53.015137
2018-07-07T06:49:32.882Z,52.91748
2018-07-07T06:49:50.714Z,52.91748
2018-07-07T06:50:31.142Z,52.789307
2018-07-07T06:50:47.698Z,52.69165
2018-07-07T06:51:04.523Z,52.69165
2018-07-07T06:51:21.284Z,52.593994
2018-07-07T06:51:38.124Z,52.593994
2018-07-07T06:51:55.031Z,52.490234
2018-07-07T06:52:11.825Z,52.490234
2018-07-07T06:52:28.545Z,52.490234
2018-07-07T06:53:14.471Z,52.368164
2018-07-07T06:54:04.042Z,52.368164
2018-07-07T06:54:21.302Z,52.368164
2018-07-07T06:54:38.845Z,52.368164
2018-07-07T06:54:56.194Z,52.368164
2018-07-07T06:55:13.524Z,52.368164
2018-07-07T06:55:39.776Z,52.368164
2018-07-07T06:56:45.843Z,52.270508
2018-07-07T06:57:03.476Z,52.166748
2018-07-07T06:57:21.330Z,52.166748
2018-07-07T06:57:38.610Z,52.166748
2018-07-07T06:57:56.058Z,52.166748
2018-07-07T06:58:32.005Z,52.166748
2018-07-07T06:58:48.845Z,52.270508
2018-07-07T06:59:05.913Z,52.270508
2018-07-07T06:59:23.474Z,52.270508
2018-07-07T06:59:40.630Z,52.270508
2018-07-07T06:59:57.470Z,52.270508
2018-07-07T07:00:15.015Z,52.270508
2018-07-07T07:01:01.101Z,52.270508
2018-07-07T07:01:17.843Z,52.270508
2018-07-07T07:02:00.639Z,52.270508
2018-07-07T07:02:17.364Z,52.368164
2018-07-07T07:03:01.169Z,52.368164
2018-07-07T07:03:18.048Z,52.46582
2018-07-07T07:04:04.527Z,52.46582
2018-07-07T07:04:44.446Z,52.56958
2018-07-07T07:05:01.387Z,52.56958
2018-07-07T07:05:18.732Z,52.56958
2018-07-07T07:06:48.864Z,52.56958
2018-07-07T07:07:32.413Z,52.667236
2018-07-07T07:07:49.845Z,52.789307
2018-07-07T07:08:07.128Z,52.789307
2018-07-07T07:08:23.849Z,52.789307
2018-07-07T07:08:40.655Z,52.893066
2018-07-07T07:08:57.456Z,52.893066
2018-07-07T07:09:14.275Z,52.893066
2018-07-07T07:09:31.167Z,52.990723
2018-07-07T07:09:48.023Z,52.990723
2018-07-07T07:10:05.007Z,52.990723
2018-07-07T07:10:22.451Z,53.094482
2018-07-07T07:10:40.272Z,53.094482
2018-07-07T07:10:58.200Z,53.216553
2018-07-07T07:11:14.664Z,53.216553
2018-07-07T07:11:32.614Z,53.216553
2018-07-07T07:11:51.288Z,53.314209
2018-07-07T07:12:08.371Z,53.314209
2018-07-07T07:12:25.019Z,53.314209
2018-07-07T07:12:42.071Z,53.314209
2018-07-07T07:12:59.691Z,53.314209
2018-07-07T07:13:16.519Z,53.314209
2018-07-07T07:13:33.366Z,53.417969
2018-07-07T07:13:50.178Z,53.417969
2018-07-07T07:14:07.318Z,53.417969
2018-07-07T07:14:25.173Z,53.417969
2018-07-07T07:14:42.755Z,53.417969
2018-07-07T07:15:00.349Z,53.417969
2018-07-07T07:15:22.633Z,53.442383
2018-07-07T07:15:39.800Z,53.442383
2018-07-07T07:15:56.559Z,53.540039
2018-07-07T07:16:13.285Z,53.540039
2018-07-07T07:16:30.031Z,53.540039
2018-07-07T07:17:32.953Z,53.540039
2018-07-07T07:17:49.674Z,53.540039
2018-07-07T07:18:06.492Z,53.540039
2018-07-07T07:18:23.330Z,53.540039
2018-07-07T07:18:40.691Z,53.540039
2018-07-07T07:18:58.998Z,53.540039
2018-07-07T07:19:16.898Z,53.540039
2018-07-07T07:19:35.370Z,53.540039
2018-07-07T07:19:52.214Z,53.540039
2018-07-07T07:20:09.841Z,53.540039
2018-07-07T07:20:27.877Z,53.540039
2018-07-07T07:21:02.790Z,53.540039
2018-07-07T07:21:20.720Z,53.643799
2018-07-07T07:21:38.488Z,53.540039
2018-07-07T07:21:56.078Z,53.643799
2018-07-07T07:22:13.291Z,53.643799
2018-07-07T07:22:30.094Z,53.643799
2018-07-07T07:23:13.560Z,53.643799
2018-07-07T07:23:30.420Z,53.643799
2018-07-07T07:23:47.571Z,53.643799
2018-07-07T07:24:05.279Z,53.643799
2018-07-07T07:24:23.023Z,53.643799
2018-07-07T07:24:40.594Z,53.540039
2018-07-07T07:24:57.984Z,53.540039
2018-07-07T07:25:15.395Z,53.540039
2018-07-07T07:25:33.143Z,53.540039
2018-07-07T07:25:50.784Z,53.540039
2018-07-07T07:26:08.867Z,53.540039
2018-07-07T07:26:25.814Z,53.570557
2018-07-07T07:26:43.188Z,53.466797
2018-07-07T07:26:59.949Z,53.466797
2018-07-07T07:27:16.716Z,53.466797
2018-07-07T07:27:33.562Z,53.466797
2018-07-07T07:27:50.435Z,53.466797
2018-07-07T07:28:07.112Z,53.369141
2018-07-07T07:28:23.956Z,53.466797
2018-07-07T07:28:41.276Z,53.369141
2018-07-07T07:28:58.997Z,53.369141
2018-07-07T07:29:16.567Z,53.369141
2018-07-07T07:29:33.753Z,53.369141
2018-07-07T07:29:50.512Z,53.369141
2018-07-07T07:30:47.176Z,53.369141
2018-07-07T07:31:36.340Z,53.369141
2018-07-07T07:31:53.800Z,53.369141
2018-07-07T07:32:11.303Z,53.265381
2018-07-07T07:32:29.052Z,53.265381
2018-07-07T07:33:13.356Z,53.143311
2018-07-07T07:33:30.180Z,53.143311
2018-07-07T07:34:32.146Z,53.039551
2018-07-07T07:34:48.907Z,53.039551
2018-07-07T07:35:06.236Z,53.039551
2018-07-07T07:35:24.064Z,53.039551
2018-07-07T07:35:42.230Z,53.039551
2018-07-07T07:35:59.975Z,53.039551
2018-07-07T07:36:17.339Z,52.941895
2018-07-07T07:36:34.497Z,52.941895
2018-07-07T07:36:51.398Z,52.941895
2018-07-07T07:37:08.647Z,52.941895
2018-07-07T07:37:26.245Z,52.941895
2018-07-07T07:37:43.958Z,52.844238
2018-07-07T07:38:01.709Z,52.941895
2018-07-07T07:38:19.726Z,52.844238
2018-07-07T07:38:37.813Z,52.941895
2018-07-07T07:38:55.311Z,52.844238
2018-07-07T07:39:12.457Z,52.844238
2018-07-07T07:39:29.282Z,52.844238
2018-07-07T07:39:45.986Z,52.844238
2018-07-07T07:40:03.385Z,52.740479
2018-07-07T07:40:21.340Z,52.844238
2018-07-07T07:40:38.605Z,52.844238
2018-07-07T07:40:56.166Z,52.844238
2018-07-07T07:41:14.162Z,52.844238
2018-07-07T07:41:38.923Z,52.844238
2018-07-07T07:42:15.472Z,52.844238
2018-07-07T07:42:33.875Z,52.844238
2018-07-07T07:42:51.699Z,52.844238
2018-07-07T07:43:08.697Z,52.844238
2018-07-07T07:43:25.611Z,52.844238
2018-07-07T07:43:42.782Z,52.844238
2018-07-07T07:44:00.239Z,52.740479
2018-07-07T07:44:43.623Z,52.740479
2018-07-07T07:45:00.391Z,52.740479
2018-07-07T07:45:18.290Z,52.740479
2018-07-07T07:45:50.481Z,52.642822
2018-07-07T07:46:15.305Z,52.642822
2018-07-07T07:46:50.969Z,52.642822
2018-07-07T07:47:42.573Z,52.545166
2018-07-07T07:48:00.473Z,52.545166
2018-07-07T07:49:01.863Z,52.642822
2018-07-07T07:49:27.727Z,52.545166
2018-07-07T07:49:46.742Z,52.545166
2018-07-07T07:50:04.163Z,52.545166
2018-07-07T07:50:21.990Z,52.416992
2018-07-07T07:50:39.839Z,52.441406
2018-07-07T07:50:57.441Z,52.441406
2018-07-07T07:51:14.824Z,52.441406
2018-07-07T07:51:32.946Z,52.441406
2018-07-07T07:51:55.228Z,52.441406
2018-07-07T07:52:12.991Z,52.441406
2018-07-07T07:52:29.836Z,52.441406
2018-07-07T07:52:47.069Z,52.441406
2018-07-07T07:53:04.573Z,52.441406
2018-07-07T07:53:22.176Z,52.441406
2018-07-07T07:54:00.817Z,52.441406
2018-07-07T07:54:18.442Z,52.441406
2018-07-07T07:54:36.047Z,52.34375
2018-07-07T07:54:53.723Z,52.34375
2018-07-07T07:55:11.737Z,52.34375
2018-07-07T07:55:32.596Z,52.34375
2018-07-07T07:55:51.606Z,52.34375
2018-07-07T07:56:09.749Z,52.34375
2018-07-07T07:56:29.778Z,52.34375
2018-07-07T07:57:07.851Z,52.34375
2018-07-07T07:57:29.360Z,52.34375
2018-07-07T07:57:46.290Z,52.34375
2018-07-07T07:58:33.094Z,52.34375
2018-07-07T07:59:05.398Z,52.246094
2018-07-07T07:59:23.886Z,52.246094
2018-07-07T08:00:02.897Z,52.142334
2018-07-07T08:00:20.332Z,52.246094
2018-07-07T08:00:37.949Z,52.142334
2018-07-07T08:00:56.228Z,52.142334
2018-07-07T08:01:32.368Z,52.142334
2018-07-07T08:01:51.896Z,52.142334
2018-07-07T08:02:10.463Z,52.142334
2018-07-07T08:02:29.837Z,52.142334
2018-07-07T08:02:48.258Z,52.142334
2018-07-07T08:03:16.522Z,52.142334
2018-07-07T08:03:46.055Z,52.044678
2018-07-07T08:04:02.936Z,52.044678
2018-07-07T08:04:19.728Z,52.044678
2018-07-07T08:04:37.772Z,51.940918
2018-07-07T08:05:01.654Z,51.940918
2018-07-07T08:05:19.869Z,51.940918
2018-07-07T08:05:40.448Z,51.843262
2018-07-07T08:05:58.338Z,51.843262
2018-07-07T08:06:32.784Z,51.843262
2018-07-07T08:06:53.710Z,51.843262
2018-07-07T08:07:11.742Z,51.843262
2018-07-07T08:07:29.635Z,51.843262
2018-07-07T08:08:01.324Z,51.745605
2018-07-07T08:08:20.513Z,51.843262
2018-07-07T08:08:38.155Z,51.745605
2018-07-07T08:08:55.021Z,51.745605
2018-07-07T08:09:16.701Z,51.745605
2018-07-07T08:10:02.837Z,51.641846
2018-07-07T08:10:28.652Z,51.641846
2018-07-07T08:10:49.374Z,51.641846
2018-07-07T08:12:30.750Z,51.641846
2018-07-07T08:12:48.193Z,51.641846
2018-07-07T08:13:05.428Z,51.641846
2018-07-07T08:13:22.243Z,51.544189
2018-07-07T08:13:39.007Z,51.544189
2018-07-07T08:13:55.799Z,51.446533
2018-07-07T08:14:12.994Z,51.446533
2018-07-07T08:14:30.533Z,51.446533
2018-07-07T08:15:16.551Z,51.342773
2018-07-07T08:15:33.568Z,51.342773
2018-07-07T08:15:50.350Z,51.342773
2018-07-07T08:16:08.612Z,51.342773
2018-07-07T08:16:26.723Z,51.245117
2018-07-07T08:17:04.032Z,51.245117
2018-07-07T08:17:21.789Z,51.245117
2018-07-07T08:17:38.756Z,51.245117
2018-07-07T08:17:55.577Z,51.245117
2018-07-07T08:18:31.594Z,51.147461
2018-07-07T08:18:48.179Z,51.147461
2018-07-07T08:19:08.407Z,51.147461
2018-07-07T08:19:33.010Z,51.147461
2018-07-07T08:19:50.885Z,51.147461
2018-07-07T08:20:33.964Z,51.123047
2018-07-07T08:20:56.180Z,51.147461
2018-07-07T08:21:27.475Z,51.147461
2018-07-07T08:21:48.229Z,51.147461
2018-07-07T08:22:05.442Z,51.147461
2018-07-07T08:22:22.626Z,51.147461
2018-07-07T08:22:39.946Z,51.123047
2018-07-07T08:22:59.441Z,51.147461
2018-07-07T08:23:16.286Z,51.123047
2018-07-07T08:23:33.621Z,51.019287
2018-07-07T08:23:50.593Z,50.921631
2018-07-07T08:24:07.391Z,50.921631
2018-07-07T08:24:24.234Z,50.921631
2018-07-07T08:25:32.339Z,50.817871
2018-07-07T08:25:50.410Z,50.817871
2018-07-07T08:26:33.920Z,50.720215
2018-07-07T08:26:51.817Z,50.720215
2018-07-07T08:28:36.605Z,50.421143
2018-07-07T08:28:53.372Z,50.518799
2018-07-07T08:29:11.417Z,50.518799
2018-07-07T08:29:33.674Z,50.518799
2018-07-07T08:29:56.142Z,50.518799
2018-07-07T08:30:33.470Z,50.421143
2018-07-07T08:30:51.385Z,50.421143
2018-07-07T08:32:02.579Z,50.421143
2018-07-07T08:32:37.537Z,50.421143
2018-07-07T08:32:54.395Z,50.421143
2018-07-07T08:33:32.482Z,50.323486
2018-07-07T08:34:18.056Z,50.421143
2018-07-07T08:34:45.705Z,50.421143
2018-07-07T08:35:46.013Z,50.323486
2018-07-07T08:36:02.930Z,50.219727
2018-07-07T08:36:19.859Z,50.219727
2018-07-07T08:37:02.163Z,50.12207
2018-07-07T08:37:19.108Z,50.12207
2018-07-07T08:38:07.841Z,50.12207
2018-07-07T08:38:30.834Z,50.12207
2018-07-07T08:38:47.594Z,50.024414
2018-07-07T08:39:31.499Z,50.024414
2018-07-07T08:39:49.628Z,50.024414
2018-07-07T08:40:07.473Z,50.024414
2018-07-07T08:40:26.327Z,50.024414
2018-07-07T08:40:43.290Z,50.024414
2018-07-07T08:41:00.015Z,50.024414
2018-07-07T08:41:16.848Z,50.024414
2018-07-07T08:42:02.263Z,49.920654
2018-07-07T08:42:20.462Z,50.024414
2018-07-07T08:42:37.983Z,50.024414
2018-07-07T08:42:54.925Z,49.920654
2018-07-07T08:43:12.491Z,50.024414
2018-07-07T08:43:30.706Z,50.024414
2018-07-07T08:43:48.221Z,49.920654
2018-07-07T08:44:34.654Z,49.920654
2018-07-07T08:44:51.481Z,49.822998
2018-07-07T08:47:03.840Z,49.719238
2018-07-07T08:48:03.659Z,49.822998
2018-07-07T08:48:21.345Z,49.822998
2018-07-07T08:49:01.089Z,49.822998
2018-07-07T08:49:17.826Z,49.920654
2018-07-07T08:49:34.488Z,49.822998
2018-07-07T08:49:51.504Z,49.822998
2018-07-07T08:50:08.218Z,49.822998
2018-07-07T08:50:25.522Z,49.822998
2018-07-07T08:50:42.900Z,49.822998
2018-07-07T08:51:00.391Z,49.822998
2018-07-07T08:51:30.583Z,49.822998
2018-07-07T08:51:48.032Z,49.822998
2018-07-07T08:52:06.291Z,49.822998
2018-07-07T08:52:23.170Z,49.719238
2018-07-07T08:52:41.249Z,49.719238
2018-07-07T08:52:58.966Z,49.719238
2018-07-07T08:53:15.916Z,49.719238
2018-07-07T08:54:04.815Z,49.719238
2018-07-07T08:54:57.108Z,49.719238
2018-07-07T08:55:43.495Z,49.719238
2018-07-07T08:56:00.356Z,49.621582
2018-07-07T08:56:17.239Z,49.597168
2018-07-07T08:56:33.953Z,49.621582
2018-07-07T08:56:50.798Z,49.597168
2018-07-07T08:57:30.571Z,49.499512
2018-07-07T08:58:33.803Z,49.597168
2018-07-07T08:59:01.999Z,49.597168
2018-07-07T08:59:19.462Z,49.621582
2018-07-07T08:59:44.679Z,49.523926
2018-07-07T09:00:19.471Z,49.597168
2018-07-07T09:00:46.596Z,49.499512
2018-07-07T09:01:03.388Z,49.499512
2018-07-07T09:01:20.258Z,49.499512
2018-07-07T09:01:36.999Z,49.499512
2018-07-07T09:01:53.673Z,49.401855
2018-07-07T09:02:12.585Z,49.401855
2018-07-07T09:02:30.057Z,49.401855
2018-07-07T09:02:51.075Z,49.401855
2018-07-07T09:03:13.291Z,49.298096
2018-07-07T09:03:30.092Z,49.298096
2018-07-07T09:04:46.189Z,49.200439
2018-07-07T09:05:42.635Z,49.200439
2018-07-07T09:06:00.562Z,49.200439
2018-07-07T09:06:18.095Z,49.200439
2018-07-07T09:06:39.175Z,49.200439
2018-07-07T09:06:56.023Z,49.200439
2018-07-07T09:07:33.432Z,49.200439
2018-07-07T09:07:50.216Z,49.200439
2018-07-07T09:08:07.581Z,49.200439
2018-07-07T09:08:25.216Z,49.32251
2018-07-07T09:08:42.904Z,49.200439
2018-07-07T09:09:00.805Z,49.200439
2018-07-07T09:09:17.676Z,49.200439
2018-07-07T12:43:48.148Z,37.408447
2018-07-07T12:44:32.469Z,37.091064
2018-07-07T12:44:49.862Z,37.072754
2018-07-07T12:45:06.824Z,36.877441
2018-07-07T12:45:51.543Z,36.761475
2018-07-07T12:46:09.904Z,36.346436
2018-07-07T12:46:27.370Z,36.053467
2018-07-07T12:46:44.895Z,36.035156
2018-07-07T12:47:14.680Z,36.035156
2018-07-07T12:48:00.156Z,35.723877
2018-07-07T12:48:18.500Z,35.821533
2018-07-07T12:48:48.087Z,35.705566
2018-07-07T12:49:08.042Z,35.60791
2018-07-07T12:49:36.194Z,35.510254
2018-07-07T12:50:57.831Z,35.491943
2018-07-07T12:51:14.944Z,35.27832
2018-07-07T12:51:32.025Z,35.180664
2018-07-07T12:51:48.862Z,35.180664
2018-07-07T12:52:05.818Z,35.083008
2018-07-07T12:52:44.962Z,34.887695
2018-07-07T12:53:02.340Z,34.771729
2018-07-07T12:53:20.064Z,34.771729
2018-07-07T12:53:53.804Z,34.674072
2018-07-07T12:54:32.124Z,34.655762
2018-07-07T12:54:49.091Z,34.558105
2018-07-07T12:55:05.954Z,34.558105
2018-07-07T12:55:23.038Z,34.460449
2018-07-07T12:55:40.070Z,34.460449
2018-07-07T12:55:57.149Z,34.460449
2018-07-07T12:56:14.293Z,34.460449
2018-07-07T12:56:31.142Z,34.362793
2018-07-07T12:56:48.001Z,34.362793
2018-07-07T12:57:04.786Z,34.362793
2018-07-07T12:57:21.548Z,34.344482
2018-07-07T12:57:38.497Z,34.344482
2018-07-07T12:57:55.263Z,34.246826
2018-07-07T12:58:12.226Z,34.246826
2018-07-07T12:58:29.094Z,34.228516
2018-07-07T12:58:45.997Z,34.130859
2018-07-07T12:59:03.311Z,34.130859
2018-07-07T12:59:23.874Z,34.014893
2018-07-07T13:00:18.075Z,34.014893
2018-07-07T13:00:35.564Z,33.898926
2018-07-07T13:00:54.272Z,33.703613
2018-07-07T13:01:13.132Z,33.605957
2018-07-07T13:01:38.403Z,33.526611
2018-07-07T13:01:55.983Z,33.428955
2018-07-07T13:02:13.081Z,33.428955
2018-07-07T13:02:29.785Z,33.331299
2018-07-07T13:02:46.541Z,33.233643
2018-07-07T13:03:05.337Z,33.233643
2018-07-07T13:03:22.084Z,33.135986
2018-07-07T13:03:38.976Z,33.03833
2018-07-07T13:04:19.331Z,33.03833
2018-07-07T13:04:44.890Z,32.727051
2018-07-07T13:05:04.951Z,32.824707
2018-07-07T13:05:48.921Z,32.611084
2018-07-07T13:06:06.644Z,32.513428
2018-07-07T13:06:23.276Z,32.397461
2018-07-07T13:06:40.016Z,32.397461
2018-07-07T13:06:56.946Z,32.397461
2018-07-07T13:07:13.704Z,32.299805
2018-07-07T13:07:31.477Z,32.189941
2018-07-07T13:07:48.747Z,32.092285
2018-07-07T13:08:05.479Z,31.994629
2018-07-07T13:08:23.190Z,31.994629
2018-07-07T13:08:40.722Z,31.994629
2018-07-07T13:08:57.877Z,31.994629
2018-07-07T13:09:15.037Z,32.104492
2018-07-07T13:09:36.331Z,32.202148
2018-07-07T13:09:56.083Z,32.006836
2018-07-07T13:10:14.625Z,31.90918
2018-07-07T13:10:33.016Z,31.799316
2018-07-07T13:10:50.251Z,31.70166
2018-07-07T13:11:07.451Z,31.713867
2018-07-07T13:11:24.267Z,31.70166
2018-07-07T13:11:42.065Z,31.70166
2018-07-07T13:12:09.448Z,31.604004
2018-07-07T13:12:27.943Z,31.604004
2018-07-07T13:12:45.249Z,31.604004
2018-07-07T13:13:02.447Z,31.506348
2018-07-07T13:13:19.634Z,31.390381
2018-07-07T13:13:37.371Z,31.195068
2018-07-07T13:14:18.480Z,31.195068
2018-07-07T13:14:35.723Z,31.176758
2018-07-07T13:14:53.524Z,31.176758
2018-07-07T13:15:11.039Z,31.066895
2018-07-07T13:19:00.139Z,29.516602
2018-07-07T13:19:22.340Z,29.516602
2018-07-07T13:22:37.971Z,29.302979
2018-07-07T13:22:58.514Z,29.205322
2018-07-07T13:23:16.768Z,29.223633
2018-07-07T13:23:33.938Z,29.321289
2018-07-07T13:23:50.830Z,29.321289
2018-07-07T13:24:07.709Z,29.431152
2018-07-07T13:24:25.095Z,29.528809
2018-07-07T13:24:42.298Z,29.626465
2018-07-07T13:24:59.243Z,29.724121
2018-07-07T13:25:16.166Z,29.724121
2018-07-07T13:25:32.970Z,29.724121
2018-07-07T13:25:49.810Z,29.736328
2018-07-07T13:26:13.692Z,29.833984
2018-07-07T13:26:31.478Z,29.638672
2018-07-07T13:26:52.147Z,29.528809
2018-07-07T13:27:09.543Z,29.431152
2018-07-07T13:27:26.237Z,29.333496
2018-07-07T13:27:43.020Z,29.333496
2018-07-07T13:28:41.729Z,29.205322
2018-07-07T13:31:10.243Z,29.107666
2018-07-07T13:31:27.887Z,29.107666
2018-07-07T13:31:44.849Z,28.918457
2018-07-07T13:32:59.556Z,28.80249
2018-07-07T13:33:16.850Z,28.692627
2018-07-07T13:33:34.071Z,28.594971
2018-07-07T13:35:53.746Z,28.149414
2018-07-07T13:36:11.452Z,27.941895
2018-07-07T13:36:28.151Z,27.844238
2018-07-07T13:36:44.889Z,27.844238
2018-07-07T13:37:06.646Z,27.844238
2018-07-07T13:37:24.686Z,27.844238
2018-07-07T13:37:42.075Z,27.941895
2018-07-07T13:37:59.183Z,28.051758
2018-07-07T13:38:15.789Z,27.862549
2018-07-07T13:38:32.643Z,27.655029
2018-07-07T13:38:55.569Z,27.764893
2018-07-07T13:39:22.623Z,27.667236
2018-07-07T13:39:41.280Z,27.56958
2018-07-07T13:39:58.493Z,27.667236
2018-07-07T13:40:16.501Z,27.484131
2018-07-07T13:41:06.216Z,27.581787
2018-07-07T13:41:23.587Z,27.484131
2018-07-07T13:41:42.495Z,27.593994
2018-07-07T13:42:08.500Z,27.593994
2018-07-07T13:42:25.799Z,27.593994
2018-07-07T13:42:43.225Z,27.69165
2018-07-07T13:43:01.689Z,27.69165
2018-07-07T13:43:18.525Z,27.7771
2018-07-07T13:43:35.551Z,27.679443
2018-07-07T13:46:29.136Z,27.7771
2018-07-07T13:46:45.920Z,27.7771
2018-07-07T13:47:02.654Z,27.789307
2018-07-07T13:47:19.996Z,27.886963
2018-07-07T13:47:44.388Z,27.7771
2018-07-07T13:48:01.596Z,27.7771
2018-07-07T13:49:33.774Z,27.874756
2018-07-07T13:50:30.396Z,27.789307
2018-07-07T13:50:49.094Z,27.789307
2018-07-07T13:51:18.186Z,27.789307
2018-07-07T13:51:34.901Z,27.69165
2018-07-07T13:51:53.698Z,27.593994
2018-07-07T13:52:19.389Z,27.496338
2018-07-07T13:52:39.753Z,27.398682
2018-07-07T13:53:00.354Z,27.307129
2018-07-07T13:53:17.662Z,27.307129
2018-07-07T13:53:34.665Z,27.416992
2018-07-07T13:53:58.444Z,27.398682
2018-07-07T13:54:19.826Z,27.099609
2018-07-07T13:54:49.964Z,27.178955
2018-07-07T13:55:07.039Z,27.001953
2018-07-07T13:55:27.492Z,26.794434
2018-07-07T13:56:06.672Z,26.586914
2018-07-07T13:56:37.138Z,26.574707
2018-07-07T13:57:03.977Z,26.367188
2018-07-07T13:57:23.602Z,26.159668
2018-07-07T13:57:40.427Z,26.062012
2018-07-07T13:57:59.778Z,26.062012
2018-07-07T13:58:22.560Z,26.171875
2018-07-07T13:59:04.713Z,25.891113
2018-07-07T13:59:42.946Z,25.891113
2018-07-07T14:00:03.745Z,26.086426
2018-07-07T14:00:23.720Z,26.184082
2018-07-07T14:00:40.644Z,26.196289
2018-07-07T14:01:16.644Z,26.391602
2018-07-07T14:02:05.174Z,26.708984
2018-07-07T14:02:22.252Z,26.721191
2018-07-07T14:02:39.156Z,26.721191
2018-07-07T14:02:56.024Z,26.623535
2018-07-07T14:03:13.345Z,26.525879
2018-07-07T14:03:30.379Z,26.525879
2018-07-07T14:03:47.511Z,26.623535
2018-07-07T14:04:04.341Z,26.721191
2018-07-07T14:04:21.798Z,26.818848
2018-07-07T14:04:38.773Z,26.611328
2018-07-07T14:04:55.955Z,26.501465
2018-07-07T14:05:15.843Z,26.611328
2018-07-07T14:05:35.791Z,26.708984
2018-07-07T14:06:02.363Z,26.599121
2018-07-07T14:06:29.937Z,26.403809
2018-07-07T14:06:50.893Z,26.403809
2018-07-07T14:07:17.539Z,26.208496
2018-07-07T14:07:32.899Z,26.208496
2018-07-07T14:07:51.196Z,26.11084
2018-07-07T14:08:08.594Z,26.123047
2018-07-07T14:08:25.331Z,26.123047
2018-07-07T14:08:43.108Z,26.11084
2018-07-07T14:09:00.290Z,26.013184
2018-07-07T14:09:17.907Z,25.738525
2018-07-07T14:09:47.754Z,25.836182
2018-07-07T14:10:18.784Z,25.836182
2018-07-07T14:10:36.701Z,25.946045
2018-07-07T14:10:54.368Z,25.860596
2018-07-07T14:11:11.905Z,25.860596
2018-07-07T14:11:32.902Z,25.970459
2018-07-07T14:11:50.897Z,25.970459
2018-07-07T14:12:08.758Z,25.970459
2018-07-07T14:12:26.047Z,26.068115
2018-07-07T14:12:43.024Z,26.068115
2018-07-07T14:13:00.265Z,26.068115
2018-07-07T14:13:17.344Z,26.068115
2018-07-07T14:13:34.819Z,26.165771
2018-07-07T14:13:53.444Z,26.177979
2018-07-07T14:14:10.333Z,26.275635
2018-07-07T14:14:27.684Z,26.177979
2018-07-07T14:14:45.152Z,26.177979
2018-07-07T14:15:18.294Z,26.275635
2018-07-07T14:15:35.918Z,26.385498
2018-07-07T14:15:53.143Z,26.483154
2018-07-07T14:16:10.458Z,26.483154
2018-07-07T14:16:27.670Z,26.483154
2018-07-07T14:16:46.629Z,26.483154
2018-07-07T14:17:03.443Z,26.483154
2018-07-07T14:17:48.004Z,26.580811
2018-07-07T14:19:06.112Z,26.757812
2018-07-07T14:19:58.640Z,26.45874
2018-07-07T14:20:15.806Z,26.263428
2018-07-07T14:20:37.036Z,26.263428
2018-07-07T14:20:59.757Z,26.263428
2018-07-07T14:21:17.380Z,26.263428
2018-07-07T14:21:50.909Z,26.361084
2018-07-07T14:22:09.420Z,26.361084
2018-07-07T14:22:27.391Z,26.361084
2018-07-07T14:22:50.119Z,26.361084
2018-07-07T14:23:46.736Z,26.251221
2018-07-07T14:24:20.223Z,26.165771
2018-07-07T14:25:22.944Z,26.080322
2018-07-07T14:25:52.724Z,26.373291
2018-07-07T15:15:09.723Z,26.385498
2018-07-07T15:15:27.038Z,26.483154
2018-07-07T15:15:44.823Z,26.385498
2018-07-07T15:16:02.561Z,26.275635
2018-07-07T15:16:19.586Z,26.275635
2018-07-07T15:16:36.306Z,26.275635
2018-07-07T15:16:53.054Z,26.177979
2018-07-07T15:17:09.704Z,26.177979
2018-07-07T15:17:27.233Z,26.080322
2018-07-07T15:17:44.177Z,26.080322
2018-07-07T15:18:01.301Z,26.080322
2018-07-07T15:19:02.729Z,25.88501
2018-07-07T15:19:20.958Z,25.88501
2018-07-07T15:19:38.197Z,25.994873
2018-07-07T15:19:54.961Z,25.897217
2018-07-07T15:20:12.489Z,25.994873
2018-07-07T15:20:31.284Z,26.104736
2018-07-07T15:20:48.570Z,26.202393
2018-07-07T15:21:05.510Z,26.202393
2018-07-07T15:21:22.570Z,26.2146
2018-07-07T15:21:40.290Z,26.2146
2018-07-07T15:21:57.195Z,26.019287
2018-07-07T15:22:14.052Z,26.019287
2018-07-07T15:22:31.041Z,26.116943
2018-07-07T15:22:48.071Z,26.116943
2018-07-07T15:23:04.930Z,26.116943
2018-07-07T15:23:22.168Z,26.104736
2018-07-07T15:23:39.007Z,26.104736
2018-07-07T15:23:55.852Z,26.104736
2018-07-07T15:24:12.556Z,26.104736
2018-07-07T15:24:29.640Z,26.104736
2018-07-07T15:24:48.021Z,26.202393
2018-07-07T15:25:18.848Z,26.190186
2018-07-07T15:25:35.838Z,26.190186
2018-07-07T15:25:52.734Z,26.092529